createdAt,value
2022-11-02T00:01:09.476Z,34.03
2022-11-02T00:02:11.145Z,29.27
2022-11-02T00:03:12.982Z,36.33
2022-11-02T00:04:15.484Z,25.23
2022-11-02T00:05:17.130Z,29.17
2022-11-02T00:06:18.675Z,25.70
2022-11-02T00:07:20.291Z,25.20
2022-11-02T00:08:21.796Z,26.23
2022-11-02T00:09:23.300Z,25.60
2022-11-02T00:10:25.529Z,30.33
2022-11-02T00:11:27.126Z,26.03
2022-11-02T00:12:28.619Z,32.07
2022-11-02T00:13:30.169Z,24.93
2022-11-02T00:14:31.681Z,22.63
2022-11-02T00:15:36.203Z,30.67
2022-11-02T00:16:40.066Z,31.50
2022-11-02T00:17:43.918Z,26.63
2022-11-02T00:18:47.742Z,32.50
2022-11-02T00:19:49.560Z,25.33
2022-11-02T00:20:51.712Z,25.50
2022-11-02T00:21:53.534Z,24.17
2022-11-02T00:22:58.710Z,25.10
2022-11-02T00:24:01.220Z,33.83
2022-11-02T00:25:04.786Z,35.03
2022-11-02T00:26:06.373Z,27.97
2022-11-02T00:27:07.967Z,26.80
2022-11-02T00:28:09.711Z,28.00
2022-11-02T00:29:11.309Z,30.23
2022-11-02T00:30:12.869Z,33.50
2022-11-02T00:31:14.369Z,30.50
2022-11-02T00:32:15.927Z,33.13
2022-11-02T00:33:17.482Z,32.13
2022-11-02T00:34:19.177Z,37.03
2022-11-02T00:35:20.678Z,33.63
2022-11-02T00:36:24.816Z,31.80
2022-11-02T00:37:26.496Z,32.70
2022-11-02T00:38:28.102Z,36.97
2022-11-02T00:39:29.627Z,36.37
2022-11-02T00:40:31.432Z,28.10
2022-11-02T00:41:32.929Z,24.40
2022-11-02T00:42:34.441Z,22.77
2022-11-02T00:43:36.021Z,33.17
2022-11-02T00:44:37.573Z,24.67
2022-11-02T00:45:39.225Z,31.83
2022-11-02T00:46:40.746Z,25.87
2022-11-02T00:47:42.271Z,33.10
2022-11-02T00:48:43.784Z,25.10
2022-11-02T00:49:45.343Z,23.77
2022-11-02T00:50:46.861Z,24.53
2022-11-02T00:51:48.375Z,32.37
2022-11-02T00:52:49.908Z,29.17
2022-11-02T00:53:51.510Z,33.03
2022-11-02T00:54:53.038Z,36.50
2022-11-02T00:55:54.639Z,27.03
2022-11-02T00:56:56.444Z,32.60
2022-11-02T00:57:58.276Z,35.10
2022-11-02T00:58:59.780Z,29.53
2022-11-02T01:00:01.617Z,26.83
2022-11-02T01:01:07.450Z,33.80
2022-11-02T01:02:09.251Z,33.17
2022-11-02T01:03:10.879Z,34.23
2022-11-02T01:04:12.429Z,36.80
2022-11-02T01:05:13.972Z,31.73
2022-11-02T01:06:16.186Z,29.50
2022-11-02T01:07:17.712Z,31.03
2022-11-02T01:08:19.223Z,31.80
2022-11-02T01:09:21.707Z,26.97
2022-11-02T01:10:23.654Z,24.43
2022-11-02T01:11:25.241Z,26.37
2022-11-02T01:12:27.249Z,28.20
2022-11-02T01:13:28.766Z,28.27
2022-11-02T01:14:30.613Z,36.20
2022-11-02T01:15:32.139Z,26.07
2022-11-02T01:16:33.746Z,28.63
2022-11-02T01:17:35.370Z,25.77
2022-11-02T01:18:37.118Z,32.97
2022-11-02T01:19:38.657Z,32.20
2022-11-02T01:20:40.228Z,34.00
2022-11-02T01:21:41.726Z,23.90
2022-11-02T01:22:43.229Z,30.53
2022-11-02T01:23:45.003Z,29.23
2022-11-02T01:24:46.534Z,25.83
2022-11-02T01:25:48.127Z,35.50
2022-11-02T01:26:51.832Z,23.87
2022-11-02T01:27:53.502Z,27.50
2022-11-02T01:28:55.252Z,22.53
2022-11-02T01:29:57.125Z,25.23
2022-11-02T01:30:59.560Z,27.43
2022-11-02T01:32:01.155Z,31.77
2022-11-02T01:33:05.680Z,35.43
2022-11-02T01:34:07.744Z,33.03
2022-11-02T01:35:10.405Z,34.43
2022-11-02T01:36:14.041Z,41.43
2022-11-02T01:37:15.631Z,36.30
2022-11-02T01:38:17.191Z,31.47
2022-11-02T01:39:18.740Z,32.80
2022-11-02T01:40:20.228Z,27.87
2022-11-02T01:41:21.886Z,32.03
2022-11-02T01:42:25.487Z,31.97
2022-11-02T01:43:32.643Z,28.33
2022-11-02T01:44:35.656Z,35.77
2022-11-02T01:45:37.215Z,36.53
2022-11-02T01:46:42.991Z,37.13
2022-11-02T01:47:48.519Z,34.80
2022-11-02T01:49:01.365Z,37.40
2022-11-02T01:50:25.766Z,34.27
2022-11-02T01:51:32.314Z,30.23
2022-11-02T01:52:36.450Z,28.33
2022-11-02T01:53:42.833Z,30.93
2022-11-02T01:54:55.999Z,27.50
2022-11-02T01:55:59.078Z,35.00
2022-11-02T01:57:05.063Z,28.60
2022-11-02T01:58:10.086Z,40.80
2022-11-02T01:59:21.898Z,27.53
2022-11-02T02:00:23.661Z,41.90
2022-11-02T02:01:26.098Z,31.43
2022-11-02T02:02:28.845Z,33.27
2022-11-02T02:03:32.643Z,40.43
2022-11-02T02:04:35.179Z,30.93
2022-11-02T02:05:42.009Z,38.07
2022-11-02T02:06:44.350Z,43.43
2022-11-02T02:07:47.580Z,39.03
2022-11-02T02:08:51.332Z,31.90
2022-11-02T02:09:53.170Z,31.47
2022-11-02T02:10:58.444Z,43.10
2022-11-02T02:11:59.991Z,39.80
2022-11-02T02:13:01.806Z,32.70
2022-11-02T02:14:08.209Z,35.00
2022-11-02T02:15:11.866Z,30.60
2022-11-02T02:16:33.491Z,28.13
2022-11-02T02:17:42.815Z,25.03
2022-11-02T02:18:57.236Z,39.10
2022-11-02T02:20:18.282Z,33.70
2022-11-02T02:21:35.197Z,35.20
2022-11-02T02:22:51.886Z,31.80
2022-11-02T02:24:05.789Z,36.07
2022-11-02T02:25:13.121Z,38.47
2022-11-02T02:26:33.464Z,33.00
2022-11-02T02:28:19.601Z,30.40
2022-11-02T02:29:24.555Z,22.33
2022-11-02T02:30:28.962Z,29.00
2022-11-02T02:31:54.171Z,29.20
2022-11-02T02:33:10.517Z,27.00
2022-11-02T02:34:23.319Z,23.40
2022-11-02T02:35:34.099Z,32.27
2022-11-02T02:36:39.587Z,25.13
2022-11-02T02:37:45.338Z,21.87
2022-11-02T02:38:55.698Z,23.80
2022-11-02T02:40:09.023Z,23.80
2022-11-02T02:41:30.831Z,25.47
2022-11-02T02:42:37.767Z,28.73
2022-11-02T02:43:52.371Z,21.97
2022-11-02T02:45:06.467Z,23.47
2022-11-02T02:46:19.583Z,27.53
2022-11-02T02:47:27.768Z,24.67
2022-11-02T02:48:29.640Z,24.83
2022-11-02T02:49:39.160Z,22.33
2022-11-02T02:50:52.836Z,30.60
2022-11-02T02:51:57.510Z,25.97
2022-11-02T02:53:02.342Z,25.33
2022-11-02T02:54:08.727Z,30.53
2022-11-02T02:55:17.343Z,27.83
2022-11-02T02:56:21.703Z,23.17
2022-11-02T02:57:25.498Z,20.20
2022-11-02T02:58:33.000Z,29.43
2022-11-02T02:59:40.178Z,31.67
2022-11-02T03:00:41.960Z,30.47
2022-11-02T03:01:45.578Z,27.00
2022-11-02T03:03:03.384Z,24.20
2022-11-02T03:04:04.935Z,20.80
2022-11-02T03:05:25.965Z,25.07
2022-11-02T03:06:31.646Z,21.50
2022-11-02T03:07:34.502Z,21.13
2022-11-02T03:08:39.041Z,31.40
2022-11-02T03:09:46.101Z,24.57
2022-11-02T03:11:12.006Z,25.27
2022-11-02T03:12:32.400Z,28.50
2022-11-02T03:13:49.432Z,26.00
2022-11-02T03:15:00.111Z,26.20
2022-11-02T03:16:11.237Z,20.73
2022-11-02T03:17:23.091Z,28.17
2022-11-02T03:18:44.820Z,29.60
2022-11-02T03:19:51.516Z,21.27
2022-11-02T03:20:57.488Z,22.80
2022-11-02T03:22:07.082Z,30.53
2022-11-02T03:23:23.865Z,31.03
2022-11-02T03:24:34.541Z,22.10
2022-11-02T03:25:42.931Z,25.40
2022-11-02T03:27:18.395Z,25.67
2022-11-02T03:28:28.437Z,20.73
2022-11-02T03:29:36.769Z,25.30
2022-11-02T03:30:44.774Z,24.67
2022-11-02T03:32:00.270Z,24.37
2022-11-02T03:33:10.957Z,19.80
2022-11-02T03:34:17.917Z,31.77
2022-11-02T03:35:24.838Z,24.77
2022-11-02T03:36:39.142Z,24.63
2022-11-02T03:38:24.059Z,24.63
2022-11-02T03:39:50.848Z,21.40
2022-11-02T03:40:56.917Z,21.93
2022-11-02T03:42:02.206Z,18.77
2022-11-02T03:43:05.625Z,27.10
2022-11-02T03:44:10.890Z,30.17
2022-11-02T03:45:15.315Z,23.40
2022-11-02T03:46:19.175Z,23.80
2022-11-02T03:47:21.480Z,32.37
2022-11-02T03:48:29.579Z,22.53
2022-11-02T03:49:32.826Z,20.70
2022-11-02T03:50:36.719Z,24.80
2022-11-02T03:51:42.691Z,24.27
2022-11-02T03:52:47.059Z,26.77
2022-11-02T03:53:55.034Z,27.83
2022-11-02T03:55:13.754Z,28.37
2022-11-02T03:56:23.422Z,23.40
2022-11-02T03:57:37.657Z,19.73
2022-11-02T03:58:39.262Z,21.90
2022-11-02T03:59:40.774Z,23.37
2022-11-02T04:00:50.428Z,26.80
2022-11-02T04:01:52.793Z,24.23
2022-11-02T04:03:00.402Z,26.63
2022-11-02T04:04:04.498Z,30.13
2022-11-02T04:05:06.364Z,25.17
2022-11-02T04:06:08.809Z,27.33
2022-11-02T04:07:10.733Z,24.23
2022-11-02T04:08:23.363Z,25.67
2022-11-02T04:09:25.507Z,17.13
2022-11-02T04:10:28.015Z,23.13
2022-11-02T04:11:49.643Z,17.50
2022-11-02T04:13:09.882Z,20.80
2022-11-02T04:14:30.773Z,21.57
2022-11-02T04:15:32.410Z,22.57
2022-11-02T04:16:33.995Z,19.83
2022-11-02T04:17:53.850Z,18.37
2022-11-02T04:19:14.234Z,21.50
2022-11-02T04:20:15.904Z,21.47
2022-11-02T04:21:17.394Z,25.53
2022-11-02T04:22:38.457Z,19.13
2022-11-02T04:23:58.368Z,20.20
2022-11-02T04:25:18.968Z,23.20
2022-11-02T04:26:20.653Z,21.03
2022-11-02T04:27:22.210Z,28.77
2022-11-02T04:28:23.844Z,18.30
2022-11-02T04:29:25.352Z,18.30
2022-11-02T04:30:27.174Z,25.30
2022-11-02T04:31:28.690Z,21.93
2022-11-02T04:32:48.674Z,23.57
2022-11-02T04:33:50.183Z,30.43
2022-11-02T04:34:51.695Z,22.73
2022-11-02T04:35:53.263Z,23.67
2022-11-02T04:36:54.762Z,32.27
2022-11-02T04:38:15.769Z,27.50
2022-11-02T04:39:17.704Z,33.77
2022-11-02T04:40:19.261Z,22.80
2022-11-02T04:41:40.857Z,34.10
2022-11-02T04:42:46.983Z,29.20
2022-11-02T04:43:48.523Z,30.03
2022-11-02T04:44:50.012Z,28.40
2022-11-02T04:45:51.515Z,30.27
2022-11-02T04:46:53.136Z,35.83
2022-11-02T04:48:17.143Z,32.70
2022-11-02T04:49:18.767Z,31.67
2022-11-02T04:50:20.326Z,29.90
2022-11-02T04:51:25.624Z,31.00
2022-11-02T04:52:27.130Z,26.20
2022-11-02T04:53:28.675Z,22.90
2022-11-02T04:54:30.191Z,25.47
2022-11-02T04:55:31.791Z,24.37
2022-11-02T04:56:33.479Z,26.43
2022-11-02T04:57:35.330Z,19.97
2022-11-02T04:58:36.846Z,25.33
2022-11-02T04:59:38.363Z,30.60
2022-11-02T05:00:40.134Z,23.67
2022-11-02T05:01:41.790Z,18.30
2022-11-02T05:02:43.710Z,21.90
2022-11-02T05:03:49.146Z,21.53
2022-11-02T05:04:50.662Z,26.60
2022-11-02T05:05:55.649Z,26.97
2022-11-02T05:07:01.300Z,24.23
2022-11-02T05:08:03.569Z,29.97
2022-11-02T05:09:05.384Z,23.47
2022-11-02T05:10:07.299Z,21.67
2022-11-02T05:11:10.465Z,19.53
2022-11-02T05:12:11.989Z,18.90
2022-11-02T05:13:13.523Z,25.30
2022-11-02T05:14:15.145Z,20.37
2022-11-02T05:15:16.659Z,18.47
2022-11-02T05:16:18.225Z,17.27
2022-11-02T05:17:19.735Z,17.60
2022-11-02T05:19:24.173Z,18.73
2022-11-02T05:20:25.795Z,19.53
2022-11-02T05:21:27.375Z,18.67
2022-11-02T05:22:28.899Z,18.40
2022-11-02T05:23:30.466Z,20.30
2022-11-02T05:24:32.524Z,23.00
2022-11-02T05:25:34.465Z,19.87
2022-11-02T05:26:35.994Z,20.43
2022-11-02T05:27:37.912Z,20.77
2022-11-02T05:28:39.535Z,24.60
2022-11-02T05:29:41.071Z,22.07
2022-11-02T05:30:42.625Z,17.30
2022-11-02T05:31:44.253Z,16.43
2022-11-02T05:32:45.796Z,17.83
2022-11-02T05:33:47.408Z,17.63
2022-11-02T05:34:49.033Z,15.77
2022-11-02T05:35:50.736Z,15.63
2022-11-02T05:36:52.291Z,15.00
2022-11-02T05:37:55.503Z,19.23
2022-11-02T05:38:57.164Z,15.37
2022-11-02T05:39:58.731Z,20.33
2022-11-02T05:41:00.443Z,19.23
2022-11-02T05:42:01.935Z,18.10
2022-11-02T05:43:05.152Z,23.97
2022-11-02T05:44:06.949Z,19.97
2022-11-02T05:45:08.872Z,21.57
2022-11-02T05:46:10.475Z,20.57
2022-11-02T05:47:12.015Z,16.40
2022-11-02T05:48:13.534Z,17.53
2022-11-02T05:49:15.068Z,19.20
2022-11-02T05:50:16.633Z,17.07
2022-11-02T05:51:18.167Z,18.93
2022-11-02T05:52:19.713Z,17.30
2022-11-02T05:53:21.253Z,20.53
2022-11-02T05:54:22.866Z,17.63
2022-11-02T05:55:24.994Z,12.77
2022-11-02T05:56:26.631Z,15.73
2022-11-02T05:57:28.173Z,17.53
2022-11-02T05:58:30.341Z,16.93
2022-11-02T05:59:32.007Z,22.63
2022-11-02T06:00:33.560Z,16.23
2022-11-02T06:01:35.137Z,19.40
2022-11-02T06:02:36.788Z,14.60
2022-11-02T06:03:38.372Z,17.43
2022-11-02T06:04:40.052Z,19.43
2022-11-02T06:05:41.680Z,20.13
2022-11-02T06:06:43.961Z,25.27
2022-11-02T06:07:45.489Z,22.60
2022-11-02T06:08:47.022Z,26.07
2022-11-02T06:09:48.546Z,36.00
2022-11-02T06:10:50.131Z,34.63
2022-11-02T06:11:51.689Z,31.80
2022-11-02T06:12:58.080Z,36.87
2022-11-02T06:13:59.835Z,29.60
2022-11-02T06:15:01.442Z,30.87
2022-11-02T06:16:04.632Z,27.90
2022-11-02T06:17:06.141Z,30.60
2022-11-02T06:18:07.953Z,30.73
2022-11-02T06:19:09.549Z,31.47
2022-11-02T06:20:11.523Z,32.77
2022-11-02T06:21:13.085Z,36.53
2022-11-02T06:22:14.618Z,31.13
2022-11-02T06:23:18.170Z,31.23
2022-11-02T06:24:19.692Z,33.67
2022-11-02T06:25:21.250Z,31.27
2022-11-02T06:26:22.785Z,32.03
2022-11-02T06:27:24.289Z,30.60
2022-11-02T06:28:26.442Z,34.10
2022-11-02T06:29:27.979Z,27.57
2022-11-02T06:30:29.532Z,30.40
2022-11-02T06:31:31.055Z,31.83
2022-11-02T06:32:32.643Z,27.27
2022-11-02T06:33:34.142Z,33.00
2022-11-02T06:34:35.648Z,32.50
2022-11-02T06:35:37.187Z,28.03
2022-11-02T06:36:38.726Z,34.63
2022-11-02T06:37:40.238Z,38.23
2022-11-02T06:38:42.180Z,28.77
2022-11-02T06:39:43.749Z,36.63
2022-11-02T06:40:54.043Z,25.83
2022-11-02T06:41:55.550Z,32.83
2022-11-02T06:43:15.383Z,25.37
2022-11-02T06:44:18.281Z,25.27
2022-11-02T06:45:19.807Z,33.07
2022-11-02T06:46:21.487Z,35.07
2022-11-02T06:47:22.998Z,30.40
2022-11-02T06:48:29.840Z,27.53
2022-11-02T06:49:31.530Z,33.93
2022-11-02T06:50:33.040Z,30.07
2022-11-02T06:51:34.555Z,29.33
2022-11-02T06:52:42.374Z,28.83
2022-11-02T06:53:43.956Z,29.57
2022-11-02T06:54:45.454Z,36.30
2022-11-02T06:55:55.518Z,27.37
2022-11-02T06:56:57.088Z,32.93
2022-11-02T06:57:58.591Z,30.23
2022-11-02T06:59:00.169Z,34.77
2022-11-02T07:00:04.995Z,31.43
2022-11-02T07:01:08.029Z,30.47
2022-11-02T07:02:10.105Z,26.00
2022-11-02T07:03:11.704Z,34.40
2022-11-02T07:04:13.499Z,28.53
2022-11-02T07:05:15.150Z,32.90
2022-11-02T07:06:17.089Z,30.60
2022-11-02T07:07:18.651Z,20.77
2022-11-02T07:08:21.365Z,33.90
2022-11-02T07:09:22.890Z,25.43
2022-11-02T07:10:25.111Z,33.07
2022-11-02T07:11:26.716Z,28.87
2022-11-02T07:12:28.419Z,42.47
2022-11-02T07:13:30.142Z,34.63
2022-11-02T07:14:31.696Z,31.27
2022-11-02T07:15:33.277Z,25.40
2022-11-02T07:16:34.804Z,30.13
2022-11-02T07:17:39.991Z,34.60
2022-11-02T07:18:41.644Z,26.43
2022-11-02T07:19:43.269Z,38.53
2022-11-02T07:20:44.866Z,40.30
2022-11-02T07:21:47.800Z,27.77
2022-11-02T07:22:55.049Z,31.17
2022-11-02T07:23:56.579Z,39.83
2022-11-02T07:24:58.219Z,32.40
2022-11-02T07:26:03.311Z,24.33
2022-11-02T07:27:04.843Z,26.87
2022-11-02T07:28:06.405Z,26.13
2022-11-02T07:29:07.920Z,26.63
2022-11-02T07:30:09.682Z,24.67
2022-11-02T07:31:11.260Z,32.40
2022-11-02T07:32:12.783Z,30.13
2022-11-02T07:33:14.414Z,37.37
2022-11-02T07:34:17.288Z,27.33
2022-11-02T07:35:19.367Z,29.47
2022-11-02T07:36:20.906Z,24.40
2022-11-02T07:37:22.445Z,34.40
2022-11-02T07:38:24.012Z,31.80
2022-11-02T07:39:26.235Z,30.57
2022-11-02T07:40:29.404Z,33.80
2022-11-02T07:41:31.232Z,30.93
2022-11-02T07:42:32.783Z,29.03
2022-11-02T07:43:35.287Z,29.80
2022-11-02T07:44:37.494Z,38.43
2022-11-02T07:45:39.007Z,37.73
2022-11-02T07:46:40.525Z,32.07
2022-11-02T07:47:43.984Z,29.07
2022-11-02T07:48:47.313Z,37.13
2022-11-02T07:49:48.871Z,29.87
2022-11-02T07:50:50.390Z,29.00
2022-11-02T07:51:51.909Z,38.53
2022-11-02T07:52:55.874Z,29.63
2022-11-02T07:53:57.948Z,28.93
2022-11-02T07:54:59.451Z,34.53
2022-11-02T07:56:01.334Z,33.17
2022-11-02T07:57:02.982Z,30.63
2022-11-02T07:58:08.044Z,36.20
2022-11-02T07:59:10.783Z,29.10
2022-11-02T08:00:12.625Z,31.30
2022-11-02T08:01:14.476Z,31.60
2022-11-02T08:02:16.110Z,30.37
2022-11-02T08:03:17.726Z,36.37
2022-11-02T08:04:19.422Z,28.70
2022-11-02T08:05:21.051Z,29.37
2022-11-02T08:06:22.581Z,28.50
2022-11-02T08:07:24.135Z,28.00
2022-11-02T08:08:25.703Z,27.70
2022-11-02T08:09:27.307Z,28.43
2022-11-02T08:10:35.347Z,30.40
2022-11-02T08:11:40.461Z,26.93
2022-11-02T08:12:42.006Z,25.87
2022-11-02T08:13:43.536Z,31.50
2022-11-02T08:14:45.066Z,29.67
2022-11-02T08:15:51.130Z,26.40
2022-11-02T08:16:52.735Z,28.90
2022-11-02T08:18:24.490Z,26.83
2022-11-02T08:19:26.048Z,32.70
2022-11-02T08:20:27.644Z,23.73
2022-11-02T08:21:29.178Z,34.37
2022-11-02T08:22:30.696Z,25.73
2022-11-02T08:23:32.217Z,24.30
2022-11-02T08:24:33.715Z,27.23
2022-11-02T08:25:35.907Z,26.93
2022-11-02T08:26:38.756Z,26.93
2022-11-02T08:27:42.579Z,29.97
2022-11-02T08:28:44.180Z,26.13
2022-11-02T08:29:45.731Z,27.80
2022-11-02T08:30:47.340Z,27.70
2022-11-02T08:31:48.911Z,34.20
2022-11-02T08:32:55.481Z,26.30
2022-11-02T08:33:58.738Z,24.63
2022-11-02T08:35:00.268Z,28.63
2022-11-02T08:36:04.613Z,18.87
2022-11-02T08:37:07.985Z,26.37
2022-11-02T08:38:11.146Z,26.00
2022-11-02T08:39:18.489Z,28.83
2022-11-02T08:40:20.815Z,31.20
2022-11-02T08:41:22.453Z,21.67
2022-11-02T08:42:23.991Z,27.40
2022-11-02T08:43:25.781Z,26.67
2022-11-02T08:44:27.284Z,27.33
2022-11-02T08:45:35.132Z,30.27
2022-11-02T08:46:40.224Z,29.30
2022-11-02T08:47:42.535Z,28.47
2022-11-02T08:48:45.275Z,30.53
2022-11-02T08:49:47.191Z,23.70
2022-11-02T08:50:49.374Z,27.60
2022-11-02T08:51:51.028Z,26.40
2022-11-02T08:52:52.785Z,23.73
2022-11-02T08:53:54.428Z,35.37
2022-11-02T08:54:56.030Z,22.42
2022-11-02T08:55:59.078Z,27.90
2022-11-02T08:57:00.595Z,28.13
2022-11-02T08:58:02.446Z,23.43
2022-11-02T08:59:04.154Z,28.97
2022-11-02T09:00:07.124Z,24.50
2022-11-02T09:01:08.710Z,22.57
2022-11-02T09:02:10.458Z,19.07
2022-11-02T09:03:14.007Z,24.70
2022-11-02T09:04:15.564Z,28.77
2022-11-02T09:05:17.176Z,27.30
2022-11-02T09:06:18.766Z,26.33
2022-11-02T09:07:20.304Z,26.70
2022-11-02T09:08:21.868Z,21.10
2022-11-02T09:09:23.425Z,23.80
2022-11-02T09:10:25.358Z,27.97
2022-11-02T09:11:26.903Z,19.05
2022-11-02T09:12:28.498Z,23.30
2022-11-02T09:13:30.315Z,25.87
2022-11-02T09:14:31.926Z,22.60
2022-11-02T09:15:35.528Z,34.20
2022-11-02T09:16:41.268Z,28.60
2022-11-02T09:17:46.603Z,23.70
2022-11-02T09:18:48.153Z,30.85
2022-11-02T09:19:49.692Z,39.08
2022-11-02T09:20:51.462Z,27.48
2022-11-02T09:21:53.137Z,24.13
2022-11-02T09:22:54.686Z,22.40
2022-11-02T09:23:56.206Z,28.50
2022-11-02T09:24:57.709Z,27.10
2022-11-02T09:26:00.183Z,23.60
2022-11-02T09:27:01.712Z,24.52
2022-11-02T09:28:03.387Z,21.48
2022-11-02T09:29:05.101Z,23.57
2022-11-02T09:30:07.675Z,25.77
2022-11-02T09:31:11.572Z,29.80
2022-11-02T09:32:13.501Z,24.58
2022-11-02T09:33:15.381Z,29.48
2022-11-02T09:34:16.961Z,19.50
2022-11-02T09:35:18.534Z,24.23
2022-11-02T09:36:20.093Z,26.93
2022-11-02T09:37:21.623Z,23.15
2022-11-02T09:38:23.219Z,23.57
2022-11-02T09:39:24.971Z,24.90
2022-11-02T09:40:30.289Z,24.25
2022-11-02T09:41:58.866Z,28.37
2022-11-02T09:43:21.867Z,31.33
2022-11-02T09:44:38.297Z,31.77
2022-11-02T09:45:53.430Z,22.20
2022-11-02T09:47:39.632Z,23.52
2022-11-02T09:48:27.863Z,23.48
2022-11-02T09:49:30.930Z,25.13
2022-11-02T09:51:02.224Z,23.67
2022-11-02T09:52:07.446Z,31.73
2022-11-02T09:53:16.791Z,33.83
2022-11-02T09:54:21.078Z,19.08
2022-11-02T09:55:32.206Z,23.38
2022-11-02T09:56:35.419Z,21.38
2022-11-02T09:57:38.893Z,20.85
2022-11-02T09:58:41.251Z,23.80
2022-11-02T09:59:43.014Z,31.70
2022-11-02T10:00:48.880Z,25.88
2022-11-02T10:01:56.916Z,29.70
2022-11-02T10:03:25.409Z,27.13
2022-11-02T10:04:42.831Z,17.92
2022-11-02T10:06:11.239Z,31.75
2022-11-02T10:07:25.027Z,32.78
2022-11-02T10:08:32.662Z,23.77
2022-11-02T10:09:44.230Z,30.40
2022-11-02T10:10:53.395Z,23.52
2022-11-02T10:12:09.874Z,25.95
2022-11-02T10:13:38.633Z,26.00
2022-11-02T10:14:55.831Z,20.80
2022-11-02T10:16:03.559Z,18.85
2022-11-02T10:17:17.427Z,19.70
2022-11-02T10:18:24.061Z,36.80
2022-11-02T10:19:30.310Z,38.58
2022-11-02T10:20:41.813Z,28.80
2022-11-02T10:21:47.686Z,19.70
2022-11-02T10:22:49.319Z,36.13
2022-11-02T10:23:55.125Z,26.90
2022-11-02T10:24:58.335Z,19.13
2022-11-02T10:26:01.827Z,23.80
2022-11-02T10:27:14.251Z,26.35
2022-11-02T10:28:21.151Z,22.45
2022-11-02T10:29:51.452Z,19.30
2022-11-02T10:30:54.376Z,24.20
2022-11-02T10:31:56.025Z,22.05
2022-11-02T10:32:57.772Z,25.23
2022-11-02T10:34:14.142Z,17.63
2022-11-02T10:35:41.109Z,23.10
2022-11-02T10:36:58.191Z,22.38
2022-11-02T10:38:27.724Z,21.00
2022-11-02T10:39:53.492Z,21.38
2022-11-02T10:41:16.296Z,19.38
2022-11-02T10:42:44.018Z,18.50
2022-11-02T10:44:13.616Z,18.48
2022-11-02T10:45:52.014Z,20.38
2022-11-02T10:46:53.632Z,20.00
2022-11-02T10:48:13.510Z,22.08
2022-11-02T10:49:23.030Z,17.35
2022-11-02T10:50:44.731Z,27.20
2022-11-02T10:51:46.307Z,18.23
2022-11-02T10:52:48.075Z,21.70
2022-11-02T10:53:51.894Z,19.52
2022-11-02T10:54:53.557Z,19.85
2022-11-02T10:56:10.935Z,19.08
2022-11-02T10:57:14.076Z,15.40
2022-11-02T10:58:19.507Z,17.80
2022-11-02T10:59:25.784Z,22.17
2022-11-02T11:00:31.772Z,23.65
2022-11-02T11:01:33.726Z,16.73
2022-11-02T11:02:35.327Z,15.32
2022-11-02T11:04:11.150Z,15.77
2022-11-02T11:05:14.320Z,21.40
2022-11-02T11:06:15.959Z,24.00
2022-11-02T11:07:26.124Z,17.58
2022-11-02T11:08:44.267Z,17.02
2022-11-02T11:09:50.289Z,17.13
2022-11-02T11:10:52.129Z,20.65
2022-11-02T11:12:03.493Z,21.35
2022-11-02T11:13:07.767Z,20.15
2022-11-02T11:15:49.041Z,18.58
2022-11-02T11:16:55.114Z,19.40
2022-11-02T11:20:43.041Z,15.63
2022-11-02T11:21:45.020Z,16.92
2022-11-02T11:22:46.575Z,24.20
2022-11-02T11:23:48.100Z,16.40
2022-11-02T11:24:49.714Z,19.70
2022-11-02T11:26:26.577Z,21.45
2022-11-02T11:27:28.159Z,20.00
2022-11-02T11:28:52.930Z,21.85
2022-11-02T11:29:58.159Z,15.95
2022-11-02T11:31:08.301Z,16.13
2022-11-02T11:32:19.708Z,24.77
2022-11-02T11:33:22.987Z,16.50
2022-11-02T11:34:28.563Z,18.73
2022-11-02T11:35:34.633Z,18.98
2022-11-02T11:36:36.737Z,16.63
2022-11-02T11:37:58.052Z,18.20
2022-11-02T11:39:02.181Z,15.57
2022-11-02T11:40:14.908Z,10.63
2022-11-02T11:41:17.808Z,26.98
2022-11-02T11:42:25.355Z,19.38
2022-11-02T11:43:30.563Z,19.52
2022-11-02T11:44:32.902Z,17.30
2022-11-02T11:45:34.523Z,23.33
2022-11-02T11:46:42.038Z,14.82
2022-11-02T11:47:43.753Z,25.38
2022-11-02T11:48:50.587Z,25.70
2022-11-02T11:50:11.205Z,21.27
2022-11-02T11:51:30.161Z,20.88
2022-11-02T11:52:33.649Z,15.90
2022-11-02T11:53:35.610Z,21.02
2022-11-02T11:54:38.312Z,14.48
2022-11-02T11:55:48.974Z,16.15
2022-11-02T11:56:53.406Z,30.73
2022-11-02T11:58:14.668Z,31.08
2022-11-02T11:59:22.298Z,19.55
2022-11-02T12:00:29.073Z,17.77
2022-11-02T12:01:40.031Z,19.95
2022-11-02T12:02:44.754Z,17.33
2022-11-02T12:03:55.477Z,17.27
2022-11-02T12:05:13.290Z,17.50
2022-11-02T12:06:25.331Z,15.88
2022-11-02T12:07:38.583Z,16.98
2022-11-02T12:09:07.530Z,22.98
2022-11-02T12:10:21.907Z,27.58
2022-11-02T12:11:31.978Z,17.63
2022-11-02T12:13:14.892Z,21.63
2022-11-02T12:14:16.374Z,18.38
2022-11-02T12:15:39.742Z,13.30
2022-11-02T12:17:16.285Z,14.82
2022-11-02T12:18:48.965Z,14.18
2022-11-02T12:19:50.533Z,17.77
2022-11-02T12:21:33.782Z,17.83
2022-11-02T12:22:43.924Z,18.17
2022-11-02T12:23:57.692Z,13.93
2022-11-02T12:25:34.673Z,15.27
2022-11-02T12:27:29.285Z,18.27
2022-11-02T12:29:01.414Z,11.95
2022-11-02T12:30:15.191Z,12.55
2022-11-02T12:31:24.517Z,16.70
2022-11-02T12:32:47.941Z,16.73
2022-11-02T12:34:24.727Z,12.32
2022-11-02T12:35:54.418Z,16.38
2022-11-02T12:38:44.739Z,18.30
2022-11-02T12:40:22.086Z,17.33
2022-11-02T12:41:55.590Z,15.85
2022-11-02T12:43:02.651Z,17.45
2022-11-02T12:44:29.250Z,19.33
2022-11-02T12:45:42.792Z,17.80
2022-11-02T12:46:56.459Z,12.45
2022-11-02T12:47:59.620Z,19.23
2022-11-02T12:49:36.661Z,18.50
2022-11-02T12:50:50.267Z,17.38
2022-11-02T12:52:12.716Z,14.18
2022-11-02T12:53:35.443Z,18.95
2022-11-02T12:54:49.339Z,12.32
2022-11-02T12:55:56.946Z,15.60
2022-11-02T12:56:58.954Z,19.40
2022-11-02T12:58:06.881Z,19.00
2022-11-02T12:59:16.679Z,18.25
2022-11-02T13:00:21.823Z,13.38
2022-11-02T13:01:32.594Z,15.32
2022-11-02T13:02:49.470Z,15.80
2022-11-02T13:04:01.881Z,18.40
2022-11-02T13:05:15.118Z,21.02
2022-11-02T13:06:23.146Z,15.77
2022-11-02T13:07:52.787Z,17.65
2022-11-02T13:09:13.096Z,18.27
2022-11-02T13:10:26.451Z,13.60
2022-11-02T13:11:37.782Z,13.65
2022-11-02T13:12:39.592Z,17.77
2022-11-02T13:13:47.871Z,17.95
2022-11-02T13:14:56.222Z,15.73
2022-11-02T13:15:59.870Z,15.30
2022-11-02T13:17:09.719Z,13.07
2022-11-02T13:18:32.916Z,18.45
2022-11-02T13:20:02.030Z,19.67
2022-11-02T13:21:05.154Z,17.02
2022-11-02T13:22:10.845Z,24.27
2022-11-02T13:23:34.307Z,24.67
2022-11-02T13:24:52.194Z,10.10
2022-11-02T13:26:00.204Z,17.98
2022-11-02T13:27:21.800Z,28.83
2022-11-02T13:28:33.982Z,21.08
2022-11-02T13:29:41.962Z,24.58
2022-11-02T13:30:45.197Z,17.30
2022-11-02T13:32:17.837Z,19.77
2022-11-02T13:33:48.959Z,17.33
2022-11-02T13:34:54.012Z,16.92
2022-11-02T13:35:55.554Z,15.35
2022-11-02T13:36:57.175Z,18.55
2022-11-02T13:38:29.807Z,20.50
2022-11-02T13:39:45.268Z,19.23
2022-11-02T13:40:54.635Z,17.35
2022-11-02T13:42:16.507Z,25.50
2022-11-02T13:43:21.010Z,19.05
2022-11-02T13:44:28.245Z,17.23
2022-11-02T13:45:45.412Z,14.38
2022-11-02T13:46:58.559Z,20.88
2022-11-02T13:48:19.150Z,23.73
2022-11-02T13:49:26.391Z,16.75
2022-11-02T13:50:33.078Z,19.95
2022-11-02T13:51:40.439Z,17.98
2022-11-02T13:53:17.001Z,18.33
2022-11-02T13:54:30.282Z,20.15
2022-11-02T13:55:46.729Z,21.05
2022-11-02T13:56:53.848Z,32.85
2022-11-02T13:57:58.156Z,24.42
2022-11-02T13:59:18.980Z,31.00
2022-11-02T14:00:23.227Z,20.05
2022-11-02T14:01:27.825Z,20.05
2022-11-02T14:02:35.046Z,21.42
2022-11-02T14:03:56.051Z,16.17
2022-11-02T14:05:01.204Z,18.77
2022-11-02T14:06:11.547Z,17.38
2022-11-02T14:07:40.395Z,18.58
2022-11-02T14:08:59.580Z,16.73
2022-11-02T14:10:15.702Z,17.48
2022-11-02T14:11:17.187Z,17.60
2022-11-02T14:12:21.672Z,19.00
2022-11-02T14:13:52.389Z,16.30
2022-11-02T14:15:12.347Z,19.70
2022-11-02T14:16:42.675Z,17.75
2022-11-02T14:17:53.476Z,23.05
2022-11-02T14:19:19.382Z,17.45
2022-11-02T14:20:39.878Z,17.08
2022-11-02T14:21:52.664Z,25.83
2022-11-02T14:23:09.110Z,15.40
2022-11-02T14:24:32.478Z,17.00
2022-11-02T14:25:54.389Z,17.35
2022-11-02T14:26:57.378Z,16.27
2022-11-02T14:28:29.270Z,14.52
2022-11-02T14:29:44.873Z,21.23
2022-11-02T14:30:49.025Z,15.88
2022-11-02T14:31:57.431Z,17.88